createdAt,value
2023-03-12T00:00:08.704Z,100496.00
2023-03-12T00:02:35.547Z,100500.00
2023-03-12T00:05:02.604Z,100500.00
2023-03-12T00:07:29.432Z,100491.00
2023-03-12T00:09:56.285Z,100491.00
2023-03-12T00:12:23.032Z,100498.00
2023-03-12T00:14:49.782Z,100492.00
2023-03-12T00:17:16.518Z,100486.00
2023-03-12T00:19:43.341Z,100476.00
2023-03-12T00:22:10.078Z,100483.00
2023-03-12T00:24:37.236Z,100476.00
2023-03-12T00:27:04.036Z,100482.00
2023-03-12T00:29:31.031Z,100495.00
2023-03-12T00:31:57.774Z,100496.00
2023-03-12T00:34:24.618Z,100492.00
2023-03-12T00:36:51.395Z,100487.00
2023-03-12T00:39:18.141Z,100494.00
2023-03-12T00:41:44.877Z,100487.00
2023-03-12T00:44:11.893Z,100496.00
2023-03-12T00:46:38.729Z,100504.00
2023-03-12T00:49:05.581Z,100509.00
2023-03-12T00:51:32.395Z,100500.00
2023-03-12T00:53:59.186Z,100510.00
2023-03-12T00:56:26.039Z,100509.00
2023-03-12T00:58:52.808Z,100516.00
2023-03-12T01:01:20.006Z,100516.00
2023-03-12T01:03:47.782Z,100523.00
2023-03-12T01:06:14.594Z,100520.00
2023-03-12T01:08:41.344Z,100516.00
2023-03-12T01:11:12.353Z,100525.00
2023-03-12T01:13:39.303Z,100532.00
2023-03-12T01:16:06.799Z,100531.00
2023-03-12T01:18:33.635Z,100525.00
2023-03-12T01:21:00.424Z,100529.00
2023-03-12T01:23:27.687Z,100524.00
2023-03-12T01:25:57.335Z,100532.00
2023-03-12T01:28:25.863Z,100525.00
2023-03-12T01:30:53.491Z,100526.00
2023-03-12T01:33:22.797Z,100516.00
2023-03-12T01:35:50.205Z,100523.00
2023-03-12T01:38:19.025Z,100528.00
2023-03-12T01:40:45.941Z,100532.00
2023-03-12T01:43:34.959Z,100533.00
2023-03-12T01:46:33.509Z,100544.00
2023-03-12T01:49:09.741Z,100542.00
2023-03-12T01:51:52.206Z,100544.00
2023-03-12T01:54:27.161Z,100552.00
2023-03-12T01:56:56.372Z,100545.00
2023-03-12T01:59:33.348Z,100547.00
2023-03-12T02:02:00.767Z,100548.00
2023-03-12T02:04:31.061Z,100552.00
2023-03-12T02:07:12.689Z,100556.00
2023-03-12T02:09:48.811Z,100564.00
2023-03-12T02:12:17.229Z,100561.00
2023-03-12T02:14:44.772Z,100570.00
2023-03-12T02:17:12.435Z,100571.00
2023-03-12T02:20:10.980Z,100570.00
2023-03-12T02:22:41.777Z,100573.00
2023-03-12T02:25:26.493Z,100557.00
2023-03-12T02:27:53.439Z,100575.00
2023-03-12T02:30:21.061Z,100576.00
2023-03-12T02:32:50.630Z,100568.00
2023-03-12T02:35:17.922Z,100571.00
2023-03-12T02:37:54.341Z,100583.00
2023-03-12T02:40:37.262Z,100594.00
2023-03-12T02:43:07.907Z,100589.00
2023-03-12T02:45:38.152Z,100594.00
2023-03-12T02:48:08.928Z,100593.00
2023-03-12T02:50:35.668Z,100598.00
2023-03-12T02:53:02.399Z,100604.00
2023-03-12T02:55:29.717Z,100607.00
2023-03-12T02:57:56.498Z,100605.00
2023-03-12T03:00:23.295Z,100606.00
2023-03-12T03:02:50.203Z,100620.00
2023-03-12T03:05:16.991Z,100607.00
2023-03-12T03:07:43.755Z,100616.00
2023-03-12T03:10:11.171Z,100610.00
2023-03-12T03:12:38.053Z,100611.00
2023-03-12T03:15:05.618Z,100602.00
2023-03-12T03:17:32.374Z,100610.00
2023-03-12T03:19:59.101Z,100615.00
2023-03-12T03:22:25.844Z,100620.00
2023-03-12T03:24:54.030Z,100625.00
2023-03-12T03:27:20.828Z,100623.00
2023-03-12T03:29:47.580Z,100622.00
2023-03-12T03:32:14.509Z,100622.00
2023-03-12T03:34:41.328Z,100627.00
2023-03-12T03:37:08.250Z,100635.00
2023-03-12T03:39:35.038Z,100625.00
2023-03-12T03:42:02.103Z,100630.00
2023-03-12T03:44:29.352Z,100630.00
2023-03-12T03:46:56.187Z,100632.00
2023-03-12T03:49:23.918Z,100641.00
2023-03-12T03:51:51.836Z,100648.00
2023-03-12T03:54:19.083Z,100644.00
2023-03-12T03:56:47.558Z,100649.00
2023-03-12T03:59:14.730Z,100654.00
2023-03-12T04:01:41.681Z,100645.00
2023-03-12T04:04:08.561Z,100662.00
2023-03-12T04:06:35.337Z,100653.00
2023-03-12T04:09:02.144Z,100654.00
2023-03-12T04:11:29.352Z,100662.00
2023-03-12T04:13:57.401Z,100658.00
2023-03-12T04:16:24.764Z,100657.00
2023-03-12T04:18:51.540Z,100673.00
2023-03-12T04:21:18.559Z,100667.00
2023-03-12T04:23:45.293Z,100672.00
2023-03-12T04:26:12.086Z,100672.00
2023-03-12T04:28:38.944Z,100676.00
2023-03-12T04:31:08.365Z,100668.00
2023-03-12T04:33:38.855Z,100667.00
2023-03-12T04:36:06.772Z,100673.00
2023-03-12T04:38:33.871Z,100671.00
2023-03-12T04:41:12.417Z,100675.00
2023-03-12T04:43:39.538Z,100675.00
2023-03-12T04:46:07.347Z,100674.00
2023-03-12T04:48:35.460Z,100676.00
2023-03-12T04:51:04.485Z,100680.00
2023-03-12T04:53:31.454Z,100680.00
2023-03-12T04:55:58.518Z,100685.00
2023-03-12T04:58:25.554Z,100688.00
2023-03-12T05:00:52.294Z,100683.00
2023-03-12T05:03:19.437Z,100684.00
2023-03-12T05:05:46.332Z,100686.00
2023-03-12T05:08:13.083Z,100686.00
2023-03-12T05:10:40.277Z,100696.00
2023-03-12T05:13:19.349Z,100703.00
2023-03-12T05:15:47.647Z,100698.00
2023-03-12T05:18:14.670Z,100705.00
2023-03-12T05:20:41.508Z,100701.00
2023-03-12T05:23:08.602Z,100701.00
2023-03-12T05:25:40.509Z,100705.00
2023-03-12T05:28:07.435Z,100698.00
2023-03-12T05:30:34.299Z,100697.00
2023-03-12T05:33:01.042Z,100699.00
2023-03-12T05:35:27.782Z,100692.00
2023-03-12T05:37:54.502Z,100687.00
2023-03-12T05:40:21.649Z,100695.00
2023-03-12T05:42:48.422Z,100687.00
2023-03-12T05:45:15.208Z,100699.00
2023-03-12T05:47:43.277Z,100699.00
2023-03-12T05:50:11.348Z,100692.00
2023-03-12T05:52:38.305Z,100684.00
2023-03-12T05:55:05.968Z,100698.00
2023-03-12T05:57:32.800Z,100691.00
2023-03-12T05:59:59.518Z,100706.00
2023-03-12T06:02:26.754Z,100707.00
2023-03-12T06:04:53.873Z,100710.00
2023-03-12T06:07:20.606Z,100711.00
2023-03-12T06:09:47.334Z,100711.00
2023-03-12T06:12:14.698Z,100707.00
2023-03-12T06:14:41.559Z,100711.00
2023-03-12T06:17:08.411Z,100702.00
2023-03-12T06:19:35.173Z,100713.00
2023-03-12T06:22:01.993Z,100703.00
2023-03-12T06:24:28.777Z,100703.00
2023-03-12T06:26:55.554Z,100706.00
2023-03-12T06:29:22.285Z,100714.00
2023-03-12T06:31:52.149Z,100718.00
2023-03-12T06:34:18.953Z,100724.00
2023-03-12T06:36:46.021Z,100720.00
2023-03-12T06:39:13.173Z,100718.00
2023-03-12T06:41:41.481Z,100723.00
2023-03-12T06:44:08.208Z,100726.00
2023-03-12T06:46:35.118Z,100721.00
2023-03-12T06:49:01.878Z,100730.00
2023-03-12T06:51:28.662Z,100725.00
2023-03-12T06:53:55.520Z,100724.00
2023-03-12T06:56:22.264Z,100733.00
2023-03-12T06:58:49.035Z,100733.00
2023-03-12T07:01:16.850Z,100740.00
2023-03-12T07:03:43.714Z,100738.00
2023-03-12T07:06:19.373Z,100741.00
2023-03-12T07:08:47.082Z,100736.00
2023-03-12T07:11:14.628Z,100731.00
2023-03-12T07:13:41.660Z,100736.00
2023-03-12T07:16:09.555Z,100731.00
2023-03-12T07:18:36.430Z,100728.00
2023-03-12T07:21:03.913Z,100731.00
2023-03-12T07:23:30.691Z,100738.00
2023-03-12T07:25:57.770Z,100740.00
2023-03-12T07:28:24.518Z,100738.00
2023-03-12T07:30:51.391Z,100739.00
2023-03-12T07:33:21.295Z,100747.00
2023-03-12T07:35:51.462Z,100752.00
2023-03-12T07:38:19.304Z,100757.00
2023-03-12T07:40:54.863Z,100760.00
2023-03-12T07:43:22.306Z,100759.00
2023-03-12T07:45:50.013Z,100753.00
2023-03-12T07:48:19.482Z,100756.00
2023-03-12T07:50:46.845Z,100762.00
2023-03-12T07:53:13.572Z,100760.00
2023-03-12T07:55:40.475Z,100760.00
2023-03-12T07:58:07.441Z,100764.00
2023-03-12T08:00:34.271Z,100760.00
2023-03-12T08:03:01.321Z,100767.00
2023-03-12T08:05:28.294Z,100763.00
2023-03-12T08:07:55.147Z,100763.00
2023-03-12T08:10:24.131Z,100772.00
2023-03-12T08:12:51.067Z,100753.00
2023-03-12T08:15:17.916Z,100759.00
2023-03-12T08:17:44.717Z,100766.00
2023-03-12T08:20:13.283Z,100766.00
2023-03-12T08:22:40.613Z,100770.00
2023-03-12T08:25:08.713Z,100773.00
2023-03-12T08:27:35.724Z,100772.00
2023-03-12T08:30:02.517Z,100773.00
2023-03-12T08:32:29.415Z,100772.00
2023-03-12T08:34:57.682Z,100781.00
2023-03-12T08:37:24.419Z,100770.00
2023-03-12T08:39:51.150Z,100772.00
2023-03-12T08:42:20.645Z,100778.00
2023-03-12T08:44:47.362Z,100781.00
2023-03-12T08:47:14.159Z,100777.00
2023-03-12T08:49:40.979Z,100770.00
2023-03-12T08:52:07.856Z,100763.00
2023-03-12T08:54:34.594Z,100764.00
2023-03-12T08:57:01.539Z,100768.00
2023-03-12T08:59:28.266Z,100764.00
2023-03-12T09:01:55.422Z,100756.00
2023-03-12T09:04:22.263Z,100759.00
2023-03-12T09:06:49.223Z,100764.00
2023-03-12T09:09:16.065Z,100762.00
2023-03-12T09:11:42.834Z,100771.00
2023-03-12T09:16:57.903Z,100772.00
2023-03-12T09:19:24.969Z,100762.00
2023-03-12T09:21:51.847Z,100757.00
2023-03-12T09:24:19.195Z,100763.00
2023-03-12T09:26:46.127Z,100753.00
2023-03-12T09:29:13.097Z,100750.00
2023-03-12T09:31:39.958Z,100757.00
2023-03-12T09:34:06.905Z,100757.00
2023-03-12T09:36:34.234Z,100758.00
2023-03-12T09:39:01.069Z,100749.00
2023-03-12T09:41:32.535Z,100756.00
2023-03-12T09:44:16.780Z,100760.00
2023-03-12T09:46:50.868Z,100754.00
2023-03-12T09:49:48.231Z,100753.00
2023-03-12T09:52:30.659Z,100753.00
2023-03-12T09:55:16.352Z,100751.00
2023-03-12T09:57:49.269Z,100748.00
2023-03-12T10:00:23.885Z,100746.00
2023-03-12T10:03:23.628Z,100735.00
2023-03-12T10:06:14.863Z,100731.00
2023-03-12T10:09:19.662Z,100733.00
2023-03-12T10:12:03.790Z,100737.00
2023-03-12T10:14:57.834Z,100739.00
2023-03-12T10:17:46.807Z,100736.00
2023-03-12T10:20:46.171Z,100726.00
2023-03-12T10:23:45.976Z,100728.00
2023-03-12T10:26:22.663Z,100730.00
2023-03-12T10:29:06.881Z,100718.00
2023-03-12T10:31:57.453Z,100714.00
2023-03-12T10:34:37.996Z,100703.00
2023-03-12T10:37:22.353Z,100712.00
2023-03-12T10:39:50.520Z,100704.00
2023-03-12T10:42:24.871Z,100702.00
2023-03-12T10:44:58.665Z,100717.00
2023-03-12T10:47:41.615Z,100707.00
2023-03-12T10:50:23.079Z,100698.00
2023-03-12T10:52:53.077Z,100685.00
2023-03-12T10:55:30.379Z,100697.00
2023-03-12T10:57:57.381Z,100692.00
2023-03-12T11:00:32.202Z,100686.00
2023-03-12T11:03:21.766Z,100679.00
2023-03-12T11:05:52.993Z,100670.00
2023-03-12T11:08:24.746Z,100668.00
2023-03-12T11:10:51.742Z,100671.00
2023-03-12T11:13:36.431Z,100670.00
2023-03-12T11:16:31.437Z,100661.00
2023-03-12T11:19:02.086Z,100673.00
2023-03-12T11:21:37.106Z,100660.00
2023-03-12T11:24:11.972Z,100666.00
2023-03-12T11:27:36.416Z,100660.00
2023-03-12T11:30:11.008Z,100654.00
2023-03-12T11:32:44.794Z,100655.00
2023-03-12T11:35:15.716Z,100660.00
2023-03-12T11:38:16.151Z,100649.00
2023-03-12T11:41:04.456Z,100646.00
2023-03-12T11:43:43.893Z,100646.00
2023-03-12T11:47:06.392Z,100633.00
2023-03-12T11:50:16.648Z,100642.00
2023-03-12T11:53:39.869Z,100624.00
2023-03-12T11:56:49.229Z,100642.00
2023-03-12T11:59:39.697Z,100634.00
2023-03-12T12:02:40.124Z,100634.00
2023-03-12T12:05:55.166Z,100639.00
2023-03-12T12:08:40.653Z,100620.00
2023-03-12T12:11:41.048Z,100609.00
2023-03-12T12:14:34.635Z,100610.00
2023-03-12T12:17:58.478Z,100578.00
2023-03-12T12:20:58.179Z,100590.00
2023-03-12T12:24:27.162Z,100570.00
2023-03-12T12:27:18.834Z,100577.00
2023-03-12T12:30:14.176Z,100571.00
2023-03-12T12:33:22.773Z,100564.00
2023-03-12T12:35:51.046Z,100541.00
2023-03-12T12:38:34.589Z,100548.00
2023-03-12T12:41:27.073Z,100535.00
2023-03-12T12:44:12.369Z,100516.00
2023-03-12T12:46:46.386Z,100535.00
2023-03-12T12:49:22.385Z,100532.00
2023-03-12T12:51:57.211Z,100523.00
2023-03-12T12:54:43.620Z,100523.00
2023-03-12T12:57:30.045Z,100516.00
2023-03-12T13:00:15.328Z,100520.00
2023-03-12T13:02:47.942Z,100532.00
2023-03-12T13:05:25.802Z,100522.00
2023-03-12T13:07:53.275Z,100533.00
2023-03-12T13:10:35.069Z,100521.00
2023-03-12T13:13:07.675Z,100518.00
2023-03-12T13:15:43.403Z,100519.00
2023-03-12T13:18:29.073Z,100510.00
2023-03-12T13:20:55.704Z,100504.00
2023-03-12T13:23:45.200Z,100513.00
2023-03-12T13:26:26.201Z,100509.00
2023-03-12T13:28:56.944Z,100502.00
2023-03-12T13:31:29.622Z,100507.00
2023-03-12T13:34:06.265Z,100494.00
2023-03-12T13:36:37.625Z,100488.00
2023-03-12T13:39:07.660Z,100486.00
2023-03-12T13:41:41.362Z,100494.00
2023-03-12T13:44:23.908Z,100491.00
2023-03-12T13:47:29.256Z,100493.00
2023-03-12T13:50:05.743Z,100481.00
2023-03-12T13:53:07.399Z,100454.00
2023-03-12T13:55:37.705Z,100457.00
2023-03-12T13:58:21.407Z,100483.00
2023-03-12T14:01:07.533Z,100479.00
2023-03-12T14:03:44.830Z,100466.00
2023-03-12T14:06:24.216Z,100468.00
2023-03-12T14:09:01.469Z,100468.00
2023-03-12T14:11:48.944Z,100466.00
2023-03-12T14:14:41.428Z,100465.00
2023-03-12T14:17:19.838Z,100461.00
2023-03-12T14:19:56.158Z,100474.00
2023-03-12T14:22:24.530Z,100462.00
2023-03-12T14:25:02.061Z,100443.00
2023-03-12T14:27:33.717Z,100447.00
2023-03-12T14:30:24.568Z,100450.00
2023-03-12T14:33:01.272Z,100449.00
2023-03-12T14:35:50.298Z,100452.00
2023-03-12T14:38:36.428Z,100458.00
2023-03-12T14:41:18.607Z,100468.00
2023-03-12T14:43:46.432Z,100475.00
2023-03-12T14:46:21.310Z,100463.00
2023-03-12T14:48:54.850Z,100459.00
2023-03-12T14:51:29.855Z,100458.00
2023-03-12T14:54:03.339Z,100464.00
2023-03-12T14:56:35.106Z,100452.00
2023-03-12T14:59:32.041Z,100451.00
2023-03-12T15:02:13.321Z,100438.00
2023-03-12T15:04:41.629Z,100435.00
2023-03-12T15:07:14.574Z,100412.00
2023-03-12T15:09:45.716Z,100419.00
2023-03-12T15:12:26.139Z,100414.00
2023-03-12T15:15:03.261Z,100414.00
2023-03-12T15:17:32.063Z,100404.00
2023-03-12T15:19:59.496Z,100395.00
2023-03-12T15:22:30.213Z,100407.00
2023-03-12T15:25:23.101Z,100407.00
2023-03-12T15:28:32.603Z,100408.00
2023-03-12T15:31:16.520Z,100414.00
2023-03-12T15:33:44.830Z,100408.00
2023-03-12T15:36:14.728Z,100400.00
2023-03-12T15:38:48.661Z,100401.00
2023-03-12T15:41:25.618Z,100402.00
2023-03-12T15:43:58.683Z,100401.00
2023-03-12T15:46:27.504Z,100404.00
2023-03-12T15:48:58.959Z,100407.00
2023-03-12T15:51:38.130Z,100387.00
2023-03-12T15:54:18.730Z,100386.00
2023-03-12T15:56:45.506Z,100387.00
2023-03-12T15:59:27.501Z,100396.00
2023-03-12T16:01:56.484Z,100375.00
2023-03-12T16:04:24.558Z,100393.00
2023-03-12T16:06:53.369Z,100382.00
2023-03-12T16:09:26.197Z,100379.00
2023-03-12T16:11:55.509Z,100374.00
2023-03-12T16:14:32.835Z,100376.00
2023-03-12T16:16:59.628Z,100382.00
2023-03-12T16:19:30.118Z,100366.00
2023-03-12T16:21:56.957Z,100355.00
2023-03-12T16:24:23.709Z,100348.00
2023-03-12T16:26:56.583Z,100367.00
2023-03-12T16:29:32.013Z,100356.00
2023-03-12T16:31:59.136Z,100359.00
2023-03-12T16:34:28.214Z,100348.00
2023-03-12T16:36:54.998Z,100347.00
2023-03-12T16:39:21.902Z,100324.00
2023-03-12T16:41:48.711Z,100338.00
2023-03-12T16:44:21.370Z,100336.00
2023-03-12T16:46:48.297Z,100332.00
2023-03-12T16:49:18.087Z,100331.00
2023-03-12T16:51:44.920Z,100336.00
2023-03-12T16:54:12.518Z,100349.00
2023-03-12T16:56:44.943Z,100354.00
2023-03-12T16:59:26.838Z,100348.00
2023-03-12T17:01:54.075Z,100347.00
2023-03-12T17:04:21.031Z,100346.00
2023-03-12T17:06:47.970Z,100348.00
2023-03-12T17:09:14.802Z,100345.00
2023-03-12T17:11:42.094Z,100345.00
2023-03-12T17:14:22.159Z,100340.00
2023-03-12T17:16:49.861Z,100338.00
2023-03-12T17:19:17.081Z,100331.00
2023-03-12T17:21:44.553Z,100330.00
2023-03-12T17:24:14.072Z,100333.00
2023-03-12T17:26:43.284Z,100345.00
2023-03-12T17:29:10.048Z,100334.00
2023-03-12T17:31:37.617Z,100331.00
2023-03-12T17:34:04.976Z,100316.00
2023-03-12T17:36:31.976Z,100320.00
2023-03-12T17:38:58.720Z,100311.00
2023-03-12T17:41:27.129Z,100325.00
2023-03-12T17:43:55.315Z,100311.00
2023-03-12T17:46:22.477Z,100302.00
2023-03-12T17:48:49.283Z,100312.00
2023-03-12T17:51:16.085Z,100308.00
2023-03-12T17:53:42.830Z,100305.00
2023-03-12T17:56:12.373Z,100310.00
2023-03-12T17:58:39.533Z,100308.00
2023-03-12T18:01:06.334Z,100315.00
2023-03-12T18:03:33.150Z,100314.00
2023-03-12T18:05:59.972Z,100311.00
2023-03-12T18:08:26.748Z,100318.00
2023-03-12T18:10:53.588Z,100305.00
2023-03-12T18:13:20.344Z,100294.00
2023-03-12T18:15:56.714Z,100293.00
2023-03-12T18:18:26.109Z,100298.00
2023-03-12T18:20:53.270Z,100283.00
2023-03-12T18:23:20.242Z,100280.00
2023-03-12T18:25:47.102Z,100282.00
2023-03-12T18:28:15.232Z,100282.00
2023-03-12T18:30:42.080Z,100272.00
2023-03-12T18:33:08.885Z,100281.00
2023-03-12T18:35:35.647Z,100277.00
2023-03-12T18:38:02.862Z,100283.00
2023-03-12T18:40:30.141Z,100277.00
2023-03-12T18:43:03.096Z,100276.00
2023-03-12T18:45:30.652Z,100264.00
2023-03-12T18:47:57.454Z,100281.00
2023-03-12T18:50:24.394Z,100277.00
2023-03-12T18:52:51.231Z,100274.00
2023-03-12T18:55:18.317Z,100263.00
2023-03-12T18:57:47.600Z,100267.00
2023-03-12T19:00:17.802Z,100268.00
2023-03-12T19:02:47.845Z,100263.00
2023-03-12T19:05:15.232Z,100257.00
2023-03-12T19:07:42.311Z,100258.00
2023-03-12T19:10:10.314Z,100235.00
2023-03-12T19:12:50.789Z,100246.00
2023-03-12T19:15:24.111Z,100237.00
2023-03-12T19:17:51.546Z,100227.00
2023-03-12T19:20:18.601Z,100224.00
2023-03-12T19:22:45.495Z,100222.00
2023-03-12T19:25:12.777Z,100217.00
2023-03-12T19:27:39.612Z,100220.00
2023-03-12T19:30:07.491Z,100211.00
2023-03-12T19:32:43.198Z,100208.00
2023-03-12T19:35:14.266Z,100213.00
2023-03-12T19:37:42.547Z,100218.00
2023-03-12T19:40:11.026Z,100215.00
2023-03-12T19:42:38.483Z,100227.00
2023-03-12T19:45:05.777Z,100233.00
2023-03-12T19:47:33.296Z,100221.00
2023-03-12T19:50:00.750Z,100216.00
2023-03-12T19:52:27.742Z,100221.00
2023-03-12T19:55:03.833Z,100217.00
2023-03-12T19:57:31.682Z,100217.00
2023-03-12T19:59:58.521Z,100201.00
2023-03-12T20:02:26.043Z,100217.00
2023-03-12T20:04:52.964Z,100209.00
2023-03-12T20:07:19.836Z,100205.00
2023-03-12T20:09:46.609Z,100213.00
2023-03-12T20:12:13.515Z,100217.00
2023-03-12T20:14:42.535Z,100221.00
2023-03-12T20:17:11.066Z,100201.00
2023-03-12T20:19:38.922Z,100207.00
2023-03-12T20:22:06.825Z,100192.00
2023-03-12T20:24:33.610Z,100196.00
2023-03-12T20:27:00.404Z,100203.00
2023-03-12T20:29:27.139Z,100205.00
2023-03-12T20:31:54.232Z,100204.00
2023-03-12T20:34:21.102Z,100200.00
2023-03-12T20:36:47.859Z,100192.00
2023-03-12T20:39:14.662Z,100190.00
2023-03-12T20:41:41.477Z,100202.00
2023-03-12T20:44:08.204Z,100194.00
2023-03-12T20:46:34.968Z,100191.00
2023-03-12T20:49:01.822Z,100204.00
2023-03-12T20:51:28.556Z,100194.00
2023-03-12T20:53:55.317Z,100187.00
2023-03-12T20:56:22.073Z,100208.00
2023-03-12T20:58:48.820Z,100194.00
2023-03-12T21:01:15.688Z,100195.00
2023-03-12T21:03:42.636Z,100213.00
2023-03-12T21:06:09.427Z,100197.00
2023-03-12T21:08:36.204Z,100212.00
2023-03-12T21:11:07.096Z,100214.00
2023-03-12T21:13:33.980Z,100221.00
2023-03-12T21:16:00.778Z,100212.00
2023-03-12T21:18:28.994Z,100215.00
2023-03-12T21:21:03.389Z,100202.00
2023-03-12T21:23:31.398Z,100207.00
2023-03-12T21:26:07.188Z,100211.00
2023-03-12T21:28:35.544Z,100202.00
2023-03-12T21:31:12.706Z,100211.00
2023-03-12T21:33:39.806Z,100205.00
2023-03-12T21:36:10.388Z,100208.00
2023-03-12T21:38:39.215Z,100200.00
2023-03-12T21:41:12.185Z,100203.00
2023-03-12T21:43:39.535Z,100189.00
2023-03-12T21:46:09.466Z,100177.00
2023-03-12T21:48:36.620Z,100181.00
2023-03-12T21:51:10.103Z,100167.00
2023-03-12T21:53:37.730Z,100175.00
2023-03-12T21:56:07.314Z,100181.00
2023-03-12T21:58:35.462Z,100193.00
2023-03-12T22:01:18.129Z,100193.00
2023-03-12T22:03:46.596Z,100200.00
2023-03-12T22:06:15.327Z,100187.00
2023-03-12T22:08:45.281Z,100198.00
2023-03-12T22:11:12.026Z,100194.00
2023-03-12T22:13:38.788Z,100187.00
2023-03-12T22:16:08.293Z,100197.00
2023-03-12T22:18:40.735Z,100200.00
2023-03-12T22:21:12.878Z,100196.00
2023-03-12T22:23:39.664Z,100197.00
2023-03-12T22:26:07.744Z,100180.00
2023-03-12T22:28:35.552Z,100187.00
2023-03-12T22:31:06.615Z,100179.00
2023-03-12T22:33:36.908Z,100190.00
2023-03-12T22:36:12.938Z,100184.00
2023-03-12T22:38:39.965Z,100183.00
2023-03-12T22:41:23.982Z,100182.00
2023-03-12T22:43:53.630Z,100180.00
2023-03-12T22:46:23.556Z,100175.00
2023-03-12T22:48:56.910Z,100161.00
2023-03-12T22:51:24.748Z,100164.00
2023-03-12T22:53:51.696Z,100171.00
2023-03-12T22:56:18.742Z,100178.00
2023-03-12T22:58:45.930Z,100183.00
2023-03-12T23:01:16.082Z,100173.00
2023-03-12T23:03:45.463Z,100175.00
2023-03-12T23:06:16.999Z,100175.00
2023-03-12T23:08:46.942Z,100178.00
2023-03-12T23:11:14.834Z,100174.00
2023-03-12T23:13:44.609Z,100168.00
2023-03-12T23:16:19.143Z,100174.00
2023-03-12T23:18:47.175Z,100169.00
2023-03-12T23:21:18.595Z,100164.00
2023-03-12T23:23:46.303Z,100156.00
2023-03-12T23:26:19.752Z,100170.00
2023-03-12T23:28:47.441Z,100158.00
2023-03-12T23:31:16.054Z,100164.00
2023-03-12T23:33:43.266Z,100156.00
2023-03-12T23:36:22.866Z,100155.00
2023-03-12T23:38:50.748Z,100167.00
2023-03-12T23:41:21.842Z,100163.00
2023-03-12T23:43:49.296Z,100160.00
2023-03-12T23:46:17.409Z,100147.00
2023-03-12T23:48:47.859Z,100147.00
2023-03-12T23:51:21.706Z,100147.00
2023-03-12T23:53:51.128Z,100151.00
2023-03-12T23:56:24.779Z,100144.00
2023-03-12T23:58:51.834Z,100145.00
